createdAt,value
2019-03-04T00:00:59.829Z,144167.98
2019-03-04T00:05:55.746Z,144156.28
2019-03-04T00:10:51.691Z,144175.06
2019-03-04T00:15:47.605Z,144186.78
2019-03-04T00:20:43.523Z,144195.03
2019-03-04T00:25:39.608Z,144192.66
2019-03-04T00:30:35.538Z,144198.55
2019-03-04T00:35:31.484Z,144217.34
2019-03-04T00:40:27.500Z,144222.08
2019-03-04T00:45:23.431Z,144240.83
2019-03-04T00:50:19.708Z,144240.83
2019-03-04T00:55:15.926Z,144270.25
2019-03-04T01:00:17.892Z,144253.80
2019-03-04T01:05:14.023Z,144263.20
2019-03-04T01:10:12.049Z,144253.80
2019-03-04T01:15:13.560Z,144252.59
2019-03-04T01:20:13.462Z,144254.95
2019-03-04T01:25:15.650Z,144273.75
2019-03-04T01:30:22.746Z,144270.25
2019-03-04T01:35:18.996Z,144276.13
2019-03-04T01:40:20.596Z,144280.80
2019-03-04T01:45:17.419Z,144287.84
2019-03-04T01:50:14.933Z,144293.72
2019-03-04T01:55:12.253Z,144292.56
2019-03-04T02:00:11.071Z,144280.80
2019-03-04T02:05:07.424Z,144294.94
2019-03-04T02:10:06.956Z,144290.20
2019-03-04T02:15:05.678Z,144287.84
2019-03-04T02:20:04.226Z,144294.94
2019-03-04T02:25:00.337Z,144289.05
2019-03-04T02:29:56.253Z,144280.80
2019-03-04T02:34:52.271Z,144273.75
2019-03-04T02:39:48.268Z,144290.20
2019-03-04T02:44:44.187Z,144285.53
2019-03-04T02:49:40.105Z,144291.41
2019-03-04T02:54:36.028Z,144286.69
2019-03-04T02:59:31.985Z,144280.80
2019-03-04T03:04:27.913Z,144286.69
2019-03-04T03:09:23.831Z,144280.80
2019-03-04T03:14:19.744Z,144287.84
2019-03-04T03:19:15.712Z,144270.25
2019-03-04T03:24:11.796Z,144279.64
2019-03-04T03:29:07.735Z,144243.19
2019-03-04T03:34:03.675Z,144226.75
2019-03-04T03:39:00.303Z,144232.62
2019-03-04T03:43:56.193Z,144212.67
2019-03-04T03:48:52.134Z,144223.23
2019-03-04T03:53:48.064Z,144193.87
2019-03-04T03:58:44.090Z,144200.91
2019-03-04T04:03:40.040Z,144193.87
2019-03-04T04:08:37.158Z,144175.06
2019-03-04T04:13:33.083Z,144192.66
2019-03-04T04:18:29.020Z,144165.67
2019-03-04T04:23:24.945Z,144152.70
2019-03-04T04:28:20.879Z,144189.14
2019-03-04T04:33:16.819Z,144196.19
2019-03-04T04:38:19.418Z,144198.55
2019-03-04T04:43:17.234Z,144219.72
2019-03-04T04:48:13.204Z,144301.97
2019-03-04T04:53:09.120Z,144299.61
2019-03-04T04:58:05.144Z,144337.22
2019-03-04T05:03:01.219Z,144360.77
2019-03-04T05:07:57.135Z,144353.67
2019-03-04T05:12:53.054Z,144379.56
2019-03-04T05:17:49.031Z,144403.06
2019-03-04T05:22:44.956Z,144408.95
2019-03-04T05:27:40.993Z,144404.22
2019-03-04T05:32:36.914Z,144417.20
2019-03-04T05:37:32.862Z,144417.20
2019-03-04T05:42:28.783Z,144408.95
2019-03-04T05:47:24.675Z,144431.34
2019-03-04T05:52:20.588Z,144426.66
2019-03-04T05:57:16.620Z,144433.69
2019-03-04T06:02:12.547Z,144473.69
2019-03-04T06:07:10.377Z,144488.94
2019-03-04T06:12:06.305Z,144497.19
2019-03-04T06:17:02.227Z,144513.66
2019-03-04T06:21:58.269Z,144492.52
2019-03-04T06:26:54.368Z,144507.77
2019-03-04T06:31:50.285Z,144530.16
2019-03-04T06:36:46.333Z,144517.17
2019-03-04T06:41:42.761Z,144508.97
2019-03-04T06:46:38.799Z,144499.56
2019-03-04T06:51:36.941Z,144498.36
2019-03-04T06:56:45.815Z,144506.61
2019-03-04T07:02:13.676Z,144512.50
2019-03-04T07:07:09.611Z,144514.86
2019-03-04T07:12:05.551Z,144487.78
2019-03-04T07:17:01.474Z,144450.16
2019-03-04T07:21:59.902Z,144276.13
2019-03-04T07:26:55.921Z,143079.56
2019-03-04T07:31:51.842Z,143093.64
2019-03-04T07:36:47.782Z,143203.69
2019-03-04T07:41:43.776Z,143220.06
2019-03-04T07:46:39.764Z,143231.80
2019-03-04T07:51:35.698Z,143273.94
2019-03-04T07:56:31.718Z,143303.30
2019-03-04T08:01:27.655Z,143341.94
2019-03-04T08:06:23.568Z,143363.03
2019-03-04T08:11:56.833Z,143372.41
2019-03-04T08:16:52.774Z,143400.53
2019-03-04T08:21:48.722Z,143442.70
2019-03-04T08:26:44.641Z,143467.31
2019-03-04T08:31:40.661Z,143502.47
2019-03-04T08:36:36.603Z,143529.45
2019-03-04T08:41:32.522Z,143568.12
2019-03-04T08:46:28.444Z,143577.52
2019-03-04T08:51:24.358Z,143592.77
2019-03-04T08:56:20.276Z,143639.67
2019-03-04T09:01:16.300Z,143748.81
2019-03-04T09:06:12.386Z,143853.25
2019-03-04T09:11:08.909Z,143855.59
2019-03-04T09:16:04.853Z,143846.22
2019-03-04T09:21:00.777Z,143803.94
2019-03-04T09:26:03.207Z,143778.14
2019-03-04T09:30:59.267Z,143788.69
2019-03-04T09:35:55.328Z,143707.72
2019-03-04T09:40:51.348Z,143698.33
2019-03-04T09:45:47.370Z,143818.05
2019-03-04T09:50:43.549Z,143893.16
2019-03-04T09:55:40.320Z,143946.00
2019-03-04T10:00:42.857Z,144024.66
2019-03-04T10:06:07.047Z,144010.55
2019-03-04T10:11:27.111Z,144034.06
2019-03-04T10:16:41.927Z,144024.66
2019-03-04T10:21:50.916Z,144075.16
2019-03-04T10:27:07.343Z,144088.08
2019-03-04T10:32:07.071Z,144052.84
2019-03-04T10:37:42.086Z,144057.53
2019-03-04T10:42:53.600Z,144018.78
2019-03-04T10:47:49.512Z,144000.00
2019-03-04T10:52:45.460Z,143926.00
2019-03-04T10:57:41.371Z,143848.58
2019-03-04T11:02:37.297Z,143739.44
2019-03-04T11:07:33.218Z,143508.34
2019-03-04T11:12:29.125Z,143426.31
2019-03-04T11:17:25.035Z,143413.42
2019-03-04T11:22:20.945Z,143452.08
2019-03-04T11:27:17.055Z,143475.55
2019-03-04T11:32:12.960Z,143520.08
2019-03-04T11:37:08.902Z,143535.33
2019-03-04T11:42:04.810Z,143545.86
2019-03-04T11:47:00.727Z,143559.95
2019-03-04T11:51:56.658Z,143586.91
2019-03-04T11:56:52.688Z,143602.16
2019-03-04T12:01:49.219Z,143615.03
2019-03-04T12:06:45.134Z,143651.41
2019-03-04T12:11:41.142Z,143636.16
2019-03-04T12:16:37.051Z,143597.47
2019-03-04T12:21:33.277Z,142684.19
2019-03-04T12:26:29.235Z,142741.50
2019-03-04T12:31:28.430Z,142791.77
2019-03-04T12:36:24.615Z,142817.48
2019-03-04T12:41:20.617Z,142856.11
2019-03-04T12:46:16.528Z,142916.91
2019-03-04T12:51:12.438Z,142945.00
2019-03-04T12:56:08.364Z,142983.63
2019-03-04T13:01:04.366Z,142998.81
2019-03-04T13:06:00.292Z,143000.00
2019-03-04T13:10:56.208Z,143017.53
2019-03-04T13:15:52.417Z,143042.11
2019-03-04T13:20:48.320Z,143058.48
2019-03-04T13:25:45.106Z,143103.00
2019-03-04T13:30:45.602Z,143136.95
2019-03-04T13:35:42.781Z,143191.97
2019-03-04T13:40:38.797Z,143264.56
2019-03-04T13:45:35.005Z,143281.00
2019-03-04T13:50:35.557Z,143273.94
2019-03-04T13:55:31.474Z,143303.30
2019-03-04T14:00:41.977Z,143338.42
2019-03-04T14:05:37.988Z,143395.83
2019-03-04T14:11:03.521Z,143421.59
2019-03-04T14:16:03.299Z,143374.72
2019-03-04T14:21:01.860Z,143316.17
2019-03-04T14:26:00.128Z,143337.22
2019-03-04T14:30:56.334Z,143322.03
2019-03-04T14:35:53.271Z,143323.19
2019-03-04T14:40:51.536Z,143344.30
2019-03-04T14:45:48.330Z,143339.59
2019-03-04T14:50:45.035Z,143343.09
2019-03-04T14:55:42.741Z,143309.16
2019-03-04T15:00:42.134Z,143355.97
2019-03-04T15:05:39.011Z,143377.08
2019-03-04T15:10:35.906Z,143389.97
2019-03-04T15:15:33.965Z,143384.09
2019-03-04T15:20:33.477Z,143371.22
2019-03-04T15:25:56.642Z,143346.59
2019-03-04T15:31:00.313Z,143366.55
2019-03-04T15:35:57.827Z,143378.28
2019-03-04T15:40:54.684Z,143380.59
2019-03-04T15:45:58.606Z,143388.81
2019-03-04T15:50:55.861Z,143398.19
2019-03-04T15:55:58.709Z,143386.45
2019-03-04T16:00:56.397Z,143374.72
2019-03-04T16:05:54.474Z,143374.72
2019-03-04T16:10:51.397Z,143367.70
2019-03-04T16:15:47.643Z,143358.33
2019-03-04T16:20:44.112Z,143344.30
2019-03-04T16:25:40.637Z,143334.92
2019-03-04T16:30:36.791Z,143322.03
2019-03-04T16:35:32.732Z,143310.31
2019-03-04T16:40:29.665Z,143295.03
2019-03-04T16:45:27.242Z,143273.94
2019-03-04T16:50:26.471Z,143255.19
2019-03-04T16:55:22.435Z,143242.31
2019-03-04T17:00:19.755Z,143220.06
2019-03-04T17:05:17.298Z,143214.20
2019-03-04T17:10:23.855Z,143198.98
2019-03-04T17:15:21.875Z,143180.25
2019-03-04T17:20:19.106Z,143170.88
2019-03-04T17:25:25.248Z,143154.50
2019-03-04T17:30:23.527Z,143158.00
2019-03-04T17:35:20.749Z,143136.95
2019-03-04T17:40:18.453Z,143117.03
2019-03-04T17:45:24.491Z,143131.09
2019-03-04T17:50:31.149Z,143128.75
2019-03-04T17:55:27.285Z,143145.12
2019-03-04T18:00:23.232Z,143149.83
2019-03-04T18:05:21.564Z,143134.61
2019-03-04T18:10:18.754Z,143125.23
2019-03-04T18:15:27.207Z,143094.78
2019-03-04T18:20:33.606Z,143087.78
2019-03-04T18:25:31.092Z,143091.28
2019-03-04T18:30:39.832Z,143097.14
2019-03-04T18:35:51.602Z,143094.78
2019-03-04T18:41:09.609Z,143088.94
2019-03-04T18:46:36.122Z,143083.08
2019-03-04T18:51:32.902Z,143073.70
2019-03-04T18:56:28.806Z,143044.47
2019-03-04T19:01:24.940Z,143039.77
2019-03-04T19:06:20.845Z,143016.38
2019-03-04T19:11:16.798Z,143010.52
2019-03-04T19:16:12.735Z,142990.64
2019-03-04T19:21:08.857Z,142995.30
2019-03-04T19:26:04.766Z,142987.14
2019-03-04T19:31:00.743Z,142988.30
2019-03-04T19:35:56.682Z,142985.94
2019-03-04T19:40:53.752Z,142988.30
2019-03-04T19:45:50.188Z,142998.81
2019-03-04T19:50:47.486Z,143021.08
2019-03-04T19:55:43.859Z,143039.77
2019-03-04T20:00:40.139Z,143059.69
2019-03-04T20:05:36.099Z,143070.20
2019-03-04T20:10:32.019Z,143070.20
2019-03-04T20:15:29.951Z,143077.22
2019-03-04T20:20:29.083Z,143081.92
2019-03-04T20:25:25.445Z,143086.58
2019-03-04T20:30:23.075Z,143103.00
2019-03-04T20:35:20.539Z,143095.94
2019-03-04T20:40:16.681Z,143064.34
2019-03-04T20:45:14.219Z,143051.47
2019-03-04T20:50:19.235Z,143051.47
2019-03-04T20:55:15.401Z,143030.39
2019-03-04T21:00:36.178Z,143021.08
2019-03-04T21:05:32.944Z,143000.00
2019-03-04T21:10:29.008Z,143005.86
2019-03-04T21:15:25.549Z,143023.39
2019-03-04T21:20:22.611Z,143037.45
2019-03-04T21:25:42.346Z,143038.61
2019-03-04T21:30:44.977Z,143026.89
2019-03-04T21:35:53.821Z,143011.72
2019-03-04T21:40:55.344Z,143018.72
2019-03-04T21:46:16.463Z,143009.38
2019-03-04T21:51:37.853Z,143023.39
2019-03-04T21:56:44.999Z,143049.13
2019-03-04T22:01:47.994Z,143081.92
2019-03-04T22:06:43.904Z,143092.44
2019-03-04T22:11:39.847Z,143095.94
2019-03-04T22:16:35.838Z,143106.52
2019-03-04T22:21:31.768Z,143095.94
2019-03-04T22:26:27.732Z,143100.66
2019-03-04T22:31:24.394Z,143093.64
2019-03-04T22:36:20.329Z,143103.00
2019-03-04T22:41:16.237Z,143119.37
2019-03-04T22:46:12.195Z,143112.37
2019-03-04T22:51:08.278Z,143142.78
2019-03-04T22:56:04.288Z,143131.09
2019-03-04T23:01:05.920Z,143098.30
2019-03-04T23:06:27.074Z,143040.95
2019-03-04T23:11:26.816Z,142993.00
2019-03-04T23:16:28.542Z,142922.77
2019-03-04T23:21:24.449Z,142871.33
2019-03-04T23:26:20.432Z,142803.48
2019-03-04T23:31:16.363Z,142764.91
2019-03-04T23:36:12.355Z,142781.27
2019-03-04T23:41:08.257Z,142792.97
2019-03-04T23:46:04.260Z,142810.48
2019-03-04T23:51:00.764Z,142817.48
2019-03-04T23:55:56.656Z,142805.83
